Time;durP1;ratioP1;P1;durP2;ratioP2;P2;SDS_P1;SDS_P2;PMS_P1;PMS_P2;Temp;Humidity;BMP_temperature;BMP_pressure;BME280_temperature;BME280_humidity;BME280_pressure;Samples;Min_cycle;Max_cycle;Signal;HPM_P1;HPM_P2
2021/12/09 00:01:21;;;;;;;14.53;9.40;;;;;;;18.60;50.76;99078.03;5089259;28;20166;-58
2021/12/09 00:03:47;;;;;;;14.53;9.60;;;;;;;18.64;50.44;99078.88;5089991;28;20408;-59
2021/12/09 00:06:12;;;;;;;13.73;9.10;;;;;;;18.62;50.83;99082.13;5094923;28;20431;-59
2021/12/09 00:08:38;;;;;;;19.43;9.80;;;;;;;18.63;50.74;99077.25;5110307;28;20177;-59
2021/12/09 00:11:04;;;;;;;15.73;9.33;;;;;;;18.63;50.66;99074.38;5110292;28;20202;-59
2021/12/09 00:13:30;;;;;;;17.53;9.77;;;;;;;18.61;50.72;99082.56;5110714;28;20242;-59
2021/12/09 00:15:56;;;;;;;15.10;9.37;;;;;;;18.60;50.88;99076.03;5098109;28;20443;-59
2021/12/09 00:18:21;;;;;;;15.33;9.93;;;;;;;18.57;50.92;99079.69;5089201;28;20167;-59
2021/12/09 00:20:47;;;;;;;14.77;9.80;;;;;;;18.63;50.70;99080.09;5093310;28;20494;-59
2021/12/09 00:23:12;;;;;;;14.83;9.87;;;;;;;18.60;51.09;99078.88;5090220;28;20216;-59
2021/12/09 00:25:38;;;;;;;16.00;9.67;;;;;;;18.57;50.99;99079.69;5088414;28;20166;-59
2021/12/09 00:28:04;;;;;;;12.17;8.50;;;;;;;18.56;51.09;99078.06;5102200;28;20181;-59
2021/12/09 00:30:30;;;;;;;12.97;9.40;;;;;;;18.57;51.19;99088.25;5105296;28;20192;-59
2021/12/09 00:32:56;;;;;;;13.70;8.60;;;;;;;18.60;51.22;99083.75;5092492;28;20198;-59
2021/12/09 00:35:27;;;;;;;16.13;8.93;;;;;;;18.57;51.30;99088.25;5102321;28;20529;-59
2021/12/09 00:38:01;;;;;;;14.43;8.83;;;;;;;18.57;51.53;99093.97;5103169;28;20295;-59
2021/12/09 00:40:26;;;;;;;14.67;8.70;;;;;;;18.59;51.51;99088.69;5104316;28;20428;-59
2021/12/09 00:42:52;;;;;;;13.13;8.50;;;;;;;18.60;51.13;99092.34;5110966;28;20450;-59
2021/12/09 00:45:17;;;;;;;15.50;9.70;;;;;;;18.61;51.89;99100.50;5099589;28;20177;-59
2021/12/09 00:47:43;;;;;;;17.63;9.50;;;;;;;18.61;51.16;99100.50;5106517;28;20174;-59
2021/12/09 00:50:09;;;;;;;13.37;9.00;;;;;;;18.59;51.38;99102.16;5089474;28;20303;-59
2021/12/09 00:52:34;;;;;;;12.83;8.27;;;;;;;18.59;51.45;99102.97;5092191;28;20225;-59
2021/12/09 00:55:01;;;;;;;11.90;8.60;;;;;;;18.57;51.50;99101.75;5102546;28;20208;-59
2021/12/09 00:57:26;;;;;;;12.87;8.90;;;;;;;18.60;51.35;99107.47;5093838;28;20656;-59
2021/12/09 00:59:52;;;;;;;12.00;7.77;;;;;;;18.65;51.12;99109.06;5094832;28;20471;-59
2021/12/09 01:02:17;;;;;;;12.97;8.37;;;;;;;18.58;51.30;99112.78;5107502;28;20188;-59
2021/12/09 01:04:43;;;;;;;11.47;7.90;;;;;;;18.57;51.78;99116.03;5113056;28;20180;-59
2021/12/09 01:07:09;;;;;;;11.77;8.37;;;;;;;18.59;51.71;99117.28;5114255;28;20192;-59
2021/12/09 01:09:34;;;;;;;13.43;8.17;;;;;;;18.64;51.25;99127.47;5105651;28;20233;-59
2021/12/09 01:12:00;;;;;;;14.23;8.43;;;;;;;18.55;51.85;99124.19;5104351;28;20661;-59
2021/12/09 01:14:25;;;;;;;12.83;8.00;;;;;;;18.60;51.69;99130.31;5112052;28;20219;-60
2021/12/09 01:16:50;;;;;;;12.40;8.10;;;;;;;18.60;51.63;99132.34;5104532;28;20209;-59
2021/12/09 01:19:16;;;;;;;14.40;8.10;;;;;;;18.59;51.47;99137.28;5097845;28;20707;-59
2021/12/09 01:21:42;;;;;;;10.13;7.70;;;;;;;18.56;51.72;99132.38;5092672;28;20479;-59
2021/12/09 01:24:07;;;;;;;12.33;7.87;;;;;;;18.56;51.79;99132.38;5093231;28;20545;-60
2021/12/09 01:26:33;;;;;;;10.50;7.07;;;;;;;18.57;51.83;99133.19;5103599;28;20260;-59
2021/12/09 01:29:03;;;;;;;13.60;8.77;;;;;;;18.62;51.63;99135.66;5095416;28;20182;-60
2021/12/09 01:31:34;;;;;;;13.57;8.80;;;;;;;18.60;51.81;99138.06;5099274;28;20212;-59
2021/12/09 01:34:02;;;;;;;12.50;8.60;;;;;;;18.55;51.96;99136.47;5112640;28;20415;-59
2021/12/09 01:36:29;;;;;;;12.77;7.77;;;;;;;18.57;51.68;99134.00;5112010;28;20412;-59
2021/12/09 01:38:54;;;;;;;13.27;7.97;;;;;;;18.60;51.96;99135.22;5132757;27;20782;-59
2021/12/09 01:41:19;;;;;;;13.40;7.60;;;;;;;18.53;52.06;99138.09;5105547;27;20485;-59
2021/12/09 01:43:45;;;;;;;11.63;7.20;;;;;;;18.54;51.87;99129.13;5102018;27;20186;-60
2021/12/09 01:46:12;;;;;;;11.07;7.30;;;;;;;18.55;52.02;99136.47;5112574;28;20188;-59
2021/12/09 01:48:38;;;;;;;11.90;8.30;;;;;;;18.54;51.68;99134.00;5112484;28;20224;-60
2021/12/09 01:51:04;;;;;;;11.53;7.77;;;;;;;18.56;52.04;99149.53;5112408;28;20503;-60
2021/12/09 01:53:29;;;;;;;14.73;8.10;;;;;;;18.52;52.04;99148.69;5101266;28;21032;-59
2021/12/09 01:55:57;;;;;;;10.07;6.97;;;;;;;18.53;51.96;99143.81;5112667;28;20526;-59
2021/12/09 01:58:23;;;;;;;11.90;8.10;;;;;;;18.52;51.98;99150.75;5113313;28;20197;-60
2021/12/09 02:00:48;;;;;;;12.00;7.57;;;;;;;18.49;52.17;99152.38;5103895;27;20971;-60
2021/12/09 02:03:14;;;;;;;13.07;8.13;;;;;;;18.52;52.12;99148.69;5098067;27;20174;-59
2021/12/09 02:05:41;;;;;;;10.30;6.90;;;;;;;18.51;52.06;99147.06;5093308;28;20174;-59
2021/12/09 02:08:08;;;;;;;13.87;8.50;;;;;;;18.49;51.81;99155.25;5111604;28;20222;-60
2021/12/09 02:10:33;;;;;;;10.50;7.10;;;;;;;18.47;51.96;99145.44;5111201;28;20515;-60
2021/12/09 02:12:58;;;;;;;10.70;6.93;;;;;;;18.51;52.14;99140.56;5112608;28;20950;-59
2021/12/09 02:15:25;;;;;;;10.30;6.73;;;;;;;18.50;52.31;99145.44;5087892;28;20185;-59
2021/12/09 02:17:51;;;;;;;11.77;6.87;;;;;;;18.49;52.03;99143.81;5109266;28;20181;-60
2021/12/09 02:20:16;;;;;;;13.33;6.87;;;;;;;18.47;52.36;99139.72;5110304;28;20464;-60
2021/12/09 02:22:47;;;;;;;10.57;7.17;;;;;;;18.51;51.98;99135.63;5098273;28;20179;-59
2021/12/09 02:25:15;;;;;;;11.83;7.13;;;;;;;18.48;52.19;99136.47;5090574;28;20210;-60
2021/12/09 02:27:40;;;;;;;11.07;6.80;;;;;;;18.52;52.27;99142.19;5109384;27;20457;-60
2021/12/09 02:30:06;;;;;;;8.47;6.10;;;;;;;18.50;52.01;99136.88;5110704;28;20416;-60
2021/12/09 02:32:32;;;;;;;10.17;7.87;;;;;;;18.48;52.07;99138.50;5108290;28;20202;-59
2021/12/09 02:34:57;;;;;;;9.80;6.87;;;;;;;18.55;51.97;99147.88;5111312;28;20769;-59
2021/12/09 02:37:22;;;;;;;9.83;6.80;;;;;;;18.52;52.13;99147.91;5117474;27;20188;-60
2021/12/09 02:39:48;;;;;;;10.37;7.13;;;;;;;18.51;52.00;99147.06;5130555;27;20177;-60
2021/12/09 02:42:13;;;;;;;9.37;6.50;;;;;;;18.52;52.21;99153.63;5105845;28;20182;-60
2021/12/09 02:44:39;;;;;;;8.27;6.27;;;;;;;18.51;52.22;99149.13;5111545;28;20205;-59
2021/12/09 02:47:05;;;;;;;10.53;6.60;;;;;;;18.52;52.05;99154.41;5110502;28;20201;-60
2021/12/09 02:49:30;;;;;;;9.90;6.27;;;;;;;18.53;52.23;99158.94;5111595;28;20261;-60
2021/12/09 02:51:57;;;;;;;9.43;6.90;;;;;;;18.56;52.08;99160.94;5098637;28;20658;-59
2021/12/09 02:54:22;;;;;;;9.10;6.33;;;;;;;18.53;51.99;99156.06;5096484;28;20190;-60
2021/12/09 02:56:50;;;;;;;12.50;7.00;;;;;;;18.50;52.30;99162.59;5090287;28;20427;-59
2021/12/09 02:59:15;;;;;;;10.30;6.80;;;;;;;18.49;52.30;99166.69;5098325;28;20256;-60
2021/12/09 03:01:50;;;;;;;9.10;6.40;;;;;;;18.51;52.44;99167.06;5090383;28;20416;-65
2021/12/09 03:04:15;;;;;;;10.33;6.27;;;;;;;18.48;52.44;99170.78;5105056;28;20173;-60
2021/12/09 03:06:41;;;;;;;8.07;6.60;;;;;;;18.48;52.48;99179.34;5110188;28;20716;-59
2021/12/09 03:09:09;;;;;;;8.70;6.27;;;;;;;18.48;52.50;99182.19;5105099;28;20677;-60
2021/12/09 03:11:35;;;;;;;7.80;5.90;;;;;;;18.47;52.49;99183.41;5106605;28;21044;-60
2021/12/09 03:14:00;;;;;;;9.70;6.03;;;;;;;18.47;52.26;99185.47;5110982;28;20487;-60
2021/12/09 03:16:26;;;;;;;11.63;6.93;;;;;;;18.50;52.38;99193.19;5098026;28;20663;-59
2021/12/09 03:18:56;;;;;;;8.70;5.80;;;;;;;18.52;52.28;99200.16;5088869;28;20873;-59
2021/12/09 03:21:30;;;;;;;10.17;6.50;;;;;;;18.49;52.09;99203.84;5092703;28;20182;-60
2021/12/09 03:23:56;;;;;;;9.47;6.10;;;;;;;18.47;52.54;99196.88;5093919;28;20927;-60
2021/12/09 03:26:26;;;;;;;9.73;5.97;;;;;;;18.46;52.53;99198.13;5090049;28;20416;-60
2021/12/09 03:28:55;;;;;;;10.27;6.70;;;;;;;18.46;52.39;99207.50;5091292;28;20504;-64
2021/12/09 03:31:21;;;;;;;8.93;5.73;;;;;;;18.43;52.27;99211.19;5096639;28;20427;-60
2021/12/09 03:33:47;;;;;;;8.43;5.80;;;;;;;18.41;52.52;99209.97;5110422;28;20837;-60
2021/12/09 03:36:12;;;;;;;9.97;6.10;;;;;;;18.44;52.45;99220.56;5103060;28;20239;-60
2021/12/09 03:38:37;;;;;;;10.00;6.17;;;;;;;18.46;52.39;99218.13;5123477;27;20194;-59
2021/12/09 03:41:03;;;;;;;8.20;5.90;;;;;;;18.44;52.37;99217.69;5129901;27;20173;-60
2021/12/09 03:43:28;;;;;;;8.20;6.27;;;;;;;18.44;52.31;99220.56;5131084;27;20177;-59
2021/12/09 03:45:55;;;;;;;9.37;6.20;;;;;;;18.42;52.35;99223.00;5108071;27;20194;-60
2021/12/09 03:48:22;;;;;;;8.57;5.80;;;;;;;18.42;52.62;99229.53;5094042;28;20265;-59
2021/12/09 03:50:47;;;;;;;8.53;6.10;;;;;;;18.43;52.37;99225.47;5089848;28;20979;-59
2021/12/09 03:53:13;;;;;;;11.40;5.43;;;;;;;18.43;52.56;99225.47;5100800;27;20463;-60
2021/12/09 03:55:39;;;;;;;8.70;6.53;;;;;;;18.44;52.32;99226.28;5110517;28;20179;-60
2021/12/09 03:58:04;;;;;;;8.27;6.00;;;;;;;18.44;52.42;99221.38;5110046;28;20269;-60
2021/12/09 04:00:30;;;;;;;10.17;5.80;;;;;;;18.45;52.50;99230.75;5110227;28;20467;-60
2021/12/09 04:02:56;;;;;;;8.70;5.60;;;;;;;18.45;52.44;99242.19;5098993;28;20173;-60
2021/12/09 04:05:21;;;;;;;8.73;5.37;;;;;;;18.41;52.31;99253.63;5110282;28;20269;-60
2021/12/09 04:07:47;;;;;;;8.57;6.03;;;;;;;18.41;52.50;99255.69;5106002;28;20446;-59
2021/12/09 04:10:13;;;;;;;8.07;5.37;;;;;;;18.47;52.34;99243.41;5107862;28;20561;-60
2021/12/09 04:12:38;;;;;;;10.70;6.03;;;;;;;18.49;52.17;99235.28;5089020;28;20202;-60
2021/12/09 04:15:04;;;;;;;9.50;6.40;;;;;;;18.47;52.20;99242.63;5090431;28;20776;-60
2021/12/09 04:17:30;;;;;;;7.70;5.70;;;;;;;18.49;52.20;99229.56;5086113;28;20826;-60
2021/12/09 04:19:56;;;;;;;7.90;5.27;;;;;;;18.44;52.11;99232.00;5109317;28;20442;-60
2021/12/09 04:22:21;;;;;;;9.50;6.00;;;;;;;18.42;52.55;99223.81;5101289;28;20186;-60
2021/12/09 04:24:47;;;;;;;8.23;5.27;;;;;;;18.49;52.29;99226.69;5107824;28;20204;-60
2021/12/09 04:27:13;;;;;;;7.87;5.60;;;;;;;18.49;52.37;99226.69;5108514;28;20260;-60
2021/12/09 04:29:38;;;;;;;9.20;6.07;;;;;;;18.46;52.40;99238.94;5101758;28;20427;-60
2021/12/09 04:32:04;;;;;;;7.07;5.10;;;;;;;18.48;52.24;99233.66;5113165;28;20205;-60
2021/12/09 04:34:30;;;;;;;7.77;5.63;;;;;;;18.45;52.38;99236.47;5104826;28;20265;-59
2021/12/09 04:36:56;;;;;;;7.83;5.30;;;;;;;18.46;52.54;99241.78;5114791;27;20192;-60
2021/12/09 04:39:21;;;;;;;6.93;5.07;;;;;;;18.48;52.10;99238.53;5128934;27;20177;-60
2021/12/09 04:41:47;;;;;;;6.67;4.40;;;;;;;18.45;52.30;99245.88;5114616;27;20181;-60
2021/12/09 04:44:12;;;;;;;10.17;5.83;;;;;;;18.48;52.39;99242.22;5098124;28;20240;-60
2021/12/09 04:46:37;;;;;;;7.63;5.47;;;;;;;18.43;52.44;99245.47;5095913;28;20182;-60
2021/12/09 04:49:04;;;;;;;7.33;4.90;;;;;;;18.42;52.26;99255.25;5098440;28;20178;-60
2021/12/09 04:51:30;;;;;;;7.60;4.73;;;;;;;18.40;52.73;99251.16;5077219;28;20196;-60
2021/12/09 04:53:55;;;;;;;7.70;5.00;;;;;;;18.43;52.16;99256.91;5100577;28;20467;-60
2021/12/09 04:56:21;;;;;;;8.50;5.27;;;;;;;18.41;52.31;99245.03;5092440;28;20175;-60
2021/12/09 04:58:46;;;;;;;7.70;5.70;;;;;;;18.36;52.45;99256.88;5077881;28;20210;-60
2021/12/09 05:01:12;;;;;;;9.77;6.03;;;;;;;18.43;52.36;99254.06;5096363;28;20196;-60
2021/12/09 05:03:37;;;;;;;8.00;5.60;;;;;;;18.38;52.54;99257.31;5094604;28;20190;-60
2021/12/09 05:06:03;;;;;;;8.90;5.43;;;;;;;18.38;52.28;99257.31;5117442;27;20219;-60
2021/12/09 05:08:30;;;;;;;7.40;4.97;;;;;;;18.37;52.56;99263.41;5133316;27;20623;-60
2021/12/09 05:11:13;;;;;;;7.63;4.90;;;;;;;18.40;52.49;99268.31;5114811;27;20568;-60
2021/12/09 05:13:39;;;;;;;7.67;5.37;;;;;;;18.42;52.38;99266.69;5112568;28;20486;-60
2021/12/09 05:16:05;;;;;;;7.73;5.23;;;;;;;18.39;52.20;99270.38;5106900;28;20477;-60
2021/12/09 05:18:33;;;;;;;6.93;5.20;;;;;;;18.38;52.83;99274.44;5097501;28;20432;-60
2021/12/09 05:20:59;;;;;;;8.23;5.23;;;;;;;18.37;52.57;99272.00;5092471;28;20904;-60
2021/12/09 05:23:25;;;;;;;7.57;4.63;;;;;;;18.42;52.29;99274.44;5106968;28;20449;-60
2021/12/09 05:25:51;;;;;;;8.70;5.00;;;;;;;18.44;52.35;99283.44;5092144;28;20431;-60
2021/12/09 05:28:17;;;;;;;6.20;4.60;;;;;;;18.42;52.05;99286.69;5098246;28;20177;-60
2021/12/09 05:33:30;;;;;;;7.30;4.87;;;;;;;18.44;52.57;99278.53;5110131;28;20486;-60
2021/12/09 05:35:56;;;;;;;7.40;4.73;;;;;;;18.43;52.52;99276.91;5104026;28;20427;-60
2021/12/09 05:38:22;;;;;;;6.17;4.40;;;;;;;18.39;52.57;99280.97;5126709;27;20223;-60
2021/12/09 05:40:47;;;;;;;5.93;4.50;;;;;;;18.39;52.38;99289.53;5107788;27;20206;-60
2021/12/09 05:43:13;;;;;;;5.53;4.23;;;;;;;18.42;52.09;99285.88;5094972;28;20923;-60
2021/12/09 05:45:39;;;;;;;6.53;5.20;;;;;;;18.44;52.20;99287.13;5094302;28;20175;-60
2021/12/09 05:48:07;;;;;;;7.70;5.00;;;;;;;18.44;52.14;99294.84;5060738;28;20595;-60
2021/12/09 05:50:33;;;;;;;5.93;4.63;;;;;;;18.46;53.03;99298.16;5091468;28;20190;-61
2021/12/09 05:52:58;;;;;;;6.30;4.40;;;;;;;18.44;52.12;99295.69;5097226;28;20495;-60
2021/12/09 05:55:24;;;;;;;6.40;4.57;;;;;;;18.39;52.54;99293.22;5114744;27;20177;-60
2021/12/09 05:57:49;;;;;;;9.03;5.13;;;;;;;18.46;52.27;99301.00;5108731;28;20192;-60
2021/12/09 06:00:15;;;;;;;7.70;5.00;;;;;;;18.50;51.88;99299.78;5103374;28;20225;-60
2021/12/09 06:02:40;;;;;;;7.20;4.90;;;;;;;18.48;52.08;99307.13;5102662;28;20208;-60
2021/12/09 06:05:06;;;;;;;7.27;4.90;;;;;;;18.46;52.10;99309.59;5111726;28;20420;-60
2021/12/09 06:07:32;;;;;;;5.80;4.60;;;;;;;18.47;52.15;99317.72;5077608;28;20255;-60
2021/12/09 06:10:00;;;;;;;6.77;4.90;;;;;;;18.45;52.27;99325.91;5096726;28;20213;-60
2021/12/09 06:12:25;;;;;;;7.83;5.47;;;;;;;18.50;52.47;99324.66;5095233;27;20221;-60
2021/12/09 06:14:51;;;;;;;6.93;4.20;;;;;;;18.47;51.93;99326.28;5095391;28;20911;-61
2021/12/09 06:17:16;;;;;;;5.80;4.53;;;;;;;18.48;52.18;99335.69;5093038;28;20675;-60
2021/12/09 06:19:41;;;;;;;6.47;4.03;;;;;;;18.50;51.96;99338.97;5093354;28;20190;-60
2021/12/09 06:22:07;;;;;;;7.80;4.63;;;;;;;18.48;51.89;99336.53;5092934;28;20179;-60
2021/12/09 06:24:32;;;;;;;7.87;4.43;;;;;;;18.48;52.03;99347.13;5092179;28;20189;-60
2021/12/09 06:26:59;;;;;;;5.77;4.10;;;;;;;18.50;51.96;99341.81;5100323;28;20182;-60
2021/12/09 06:29:24;;;;;;;5.50;3.97;;;;;;;18.49;52.15;99338.16;5097880;28;20218;-60
2021/12/09 06:31:50;;;;;;;7.03;4.43;;;;;;;18.47;52.31;99354.88;5100963;28;20493;-60
2021/12/09 06:34:15;;;;;;;6.63;4.23;;;;;;;18.44;52.56;99344.28;5095228;27;20189;-60
2021/12/09 06:36:41;;;;;;;6.93;4.33;;;;;;;17.96;46.77;99344.84;5111295;27;20193;-60
2021/12/09 06:39:06;;;;;;;9.50;4.43;;;;;;;17.48;46.53;99349.88;5100704;27;20179;-60
2021/12/09 06:41:32;;;;;;;9.00;4.73;;;;;;;17.46;49.07;99349.44;5090566;28;20181;-61
2021/12/09 06:43:57;;;;;;;14.53;5.70;;;;;;;17.72;46.82;99349.22;5092426;28;20559;-60
2021/12/09 06:46:23;;;;;;;10.33;5.33;;;;;;;18.14;44.67;99349.44;5092995;28;20851;-61
2021/12/09 06:48:48;;;;;;;11.47;5.20;;;;;;;18.36;45.98;99347.50;5102075;28;20200;-60
2021/12/09 06:51:14;;;;;;;14.70;5.57;;;;;;;18.60;46.41;99346.75;5109876;28;20178;-59
2021/12/09 06:53:39;;;;;;;10.17;5.47;;;;;;;18.77;47.61;99343.94;5105124;28;20861;-59
2021/12/09 06:56:08;;;;;;;11.00;5.10;;;;;;;19.27;46.29;99334.19;5098034;28;20188;-60
2021/12/09 06:58:33;;;;;;;9.37;4.80;;;;;;;19.32;46.59;99350.94;5108028;28;20166;-60
2021/12/09 07:01:00;;;;;;;10.53;4.90;;;;;;;19.44;46.73;99344.00;5095406;28;20890;-59
2021/12/09 07:03:25;;;;;;;9.80;4.53;;;;;;;19.21;46.15;99347.25;5108242;28;20219;-60
2021/12/09 07:05:51;;;;;;;8.20;5.00;;;;;;;19.01;45.82;99360.31;5092412;28;20455;-60
2021/12/09 07:08:17;;;;;;;9.83;3.90;;;;;;;19.09;46.15;99350.53;5108102;28;20209;-61
2021/12/09 07:10:43;;;;;;;11.03;4.30;;;;;;;19.08;46.39;99354.63;5095841;28;20198;-60
2021/12/09 07:13:08;;;;;;;7.73;4.33;;;;;;;19.11;46.33;99353.78;5076797;28;20193;-61
2021/12/09 07:15:34;;;;;;;7.83;4.90;;;;;;;18.98;46.30;99354.59;5097968;28;20178;-60
2021/12/09 07:17:59;;;;;;;8.10;4.17;;;;;;;18.95;46.32;99356.22;5088366;28;20174;-61
2021/12/09 07:20:27;;;;;;;9.50;4.20;;;;;;;18.93;46.34;99352.97;5092472;28;20250;-60
2021/12/09 07:22:53;;;;;;;9.43;4.57;;;;;;;18.85;46.47;99344.75;5108429;28;20540;-60
2021/12/09 07:25:19;;;;;;;9.27;4.60;;;;;;;18.86;47.18;99352.94;5100051;28;20427;-60
2021/12/09 07:27:44;;;;;;;9.07;4.30;;;;;;;18.86;47.50;99350.06;5108744;28;20199;-60
2021/12/09 07:30:10;;;;;;;6.90;4.00;;;;;;;18.70;48.19;99352.50;5104749;28;20174;-60
2021/12/09 07:32:36;;;;;;;7.30;3.83;;;;;;;18.76;48.22;99365.16;5092496;28;20574;-60
2021/12/09 07:35:02;;;;;;;8.77;4.23;;;;;;;18.81;49.11;99361.91;5099085;28;20446;-60
2021/12/09 07:37:27;;;;;;;8.13;4.30;;;;;;;18.86;49.19;99364.38;5094654;27;20785;-60
2021/12/09 07:39:53;;;;;;;10.57;4.30;;;;;;;18.93;49.37;99373.00;5095072;28;20432;-60
2021/12/09 07:42:18;;;;;;;7.10;4.00;;;;;;;19.11;50.65;99373.81;5108920;28;20200;-60
2021/12/09 07:44:44;;;;;;;7.43;3.40;;;;;;;19.06;51.03;99370.56;5103700;28;20568;-60
2021/12/09 07:47:09;;;;;;;7.80;3.90;;;;;;;19.09;51.16;99367.69;5090580;28;20193;-60
2021/12/09 07:49:35;;;;;;;9.93;4.47;;;;;;;19.03;51.48;99379.94;5089313;28;20178;-60
2021/12/09 07:52:00;;;;;;;7.87;3.47;;;;;;;19.07;51.39;99378.69;5089415;28;20182;-60
2021/12/09 07:54:26;;;;;;;10.03;4.00;;;;;;;19.09;51.13;99379.13;5094369;28;20181;-60
2021/12/09 07:56:51;;;;;;;9.10;3.93;;;;;;;19.00;51.75;99393.00;5088760;28;20190;-60
2021/12/09 07:59:16;;;;;;;8.30;4.07;;;;;;;19.02;51.68;99384.81;5101890;27;20184;-60
2021/12/09 08:01:42;;;;;;;7.00;3.90;;;;;;;19.03;51.41;99385.66;5106652;28;20185;-60
2021/12/09 08:04:07;;;;;;;7.70;3.80;;;;;;;18.95;50.27;99381.97;5091706;28;20259;-60
2021/12/09 08:06:34;;;;;;;7.70;4.47;;;;;;;18.82;50.40;99392.16;5088418;28;20174;-60
2021/12/09 08:09:00;;;;;;;7.93;4.57;;;;;;;18.83;50.05;99399.53;5095665;28;20193;-60
2021/12/09 08:11:25;;;;;;;9.43;4.73;;;;;;;18.78;49.70;99394.19;5091080;28;20452;-60
2021/12/09 08:13:50;;;;;;;7.60;4.63;;;;;;;18.75;49.66;99402.75;5087636;28;20600;-60
2021/12/09 08:16:16;;;;;;;8.87;4.80;;;;;;;18.78;49.49;99405.63;5092804;28;20173;-61
2021/12/09 08:18:53;;;;;;;8.90;4.77;;;;;;;18.74;49.11;99401.13;5092811;28;20174;-62
2021/12/09 08:21:22;;;;;;;7.67;4.53;;;;;;;18.70;49.35;99409.69;5101126;28;20216;-61
2021/12/09 08:23:47;;;;;;;9.23;5.00;;;;;;;18.69;48.96;99408.06;5104493;28;21011;-61
2021/12/09 08:26:13;;;;;;;9.70;5.13;;;;;;;18.68;49.46;99415.00;5102688;28;20435;-60
2021/12/09 08:28:38;;;;;;;5.00;3.80;;;;;;;18.67;49.66;99421.91;5089653;28;20227;-60
2021/12/09 08:31:04;;;;;;;13.67;5.37;;;;;;;18.71;49.98;99424.81;5104023;28;20194;-61
2021/12/09 08:33:29;;;;;;;9.73;4.67;;;;;;;18.75;50.13;99434.19;5093736;28;20208;-61
2021/12/09 08:35:54;;;;;;;9.27;4.57;;;;;;;18.77;50.33;99435.44;5105415;28;20181;-60
2021/12/09 08:38:20;;;;;;;7.60;4.90;;;;;;;18.71;49.82;99437.06;5106839;28;20178;-60
2021/12/09 08:40:47;;;;;;;8.80;4.73;;;;;;;18.70;49.79;99434.59;5099448;28;20197;-61
2021/12/09 08:43:13;;;;;;;11.27;5.30;;;;;;;18.66;49.70;99446.03;5110184;28;20169;-60
2021/12/09 08:45:39;;;;;;;10.47;4.90;;;;;;;18.65;49.08;99449.28;5109964;28;20795;-60
2021/12/09 08:48:05;;;;;;;9.97;4.77;;;;;;;18.65;49.22;99455.00;5111219;28;20182;-60
2021/12/09 08:50:33;;;;;;;10.30;5.17;;;;;;;18.59;50.16;99457.44;5099658;28;20505;-60
2021/12/09 08:53:00;;;;;;;13.57;4.70;;;;;;;18.65;52.25;99467.25;5102494;28;20570;-61
2021/12/09 08:55:26;;;;;;;12.87;4.87;;;;;;;18.61;52.48;99472.13;5101627;28;20458;-60
2021/12/09 08:57:52;;;;;;;11.10;4.87;;;;;;;18.75;52.24;99463.63;5096633;28;20432;-60
2021/12/09 09:00:17;;;;;;;13.03;5.13;;;;;;;18.69;52.52;99464.41;5091248;28;20258;-60
2021/12/09 09:02:44;;;;;;;17.97;4.23;;;;;;;18.68;52.41;99466.47;5097257;28;20417;-60
2021/12/09 09:05:11;;;;;;;11.37;4.30;;;;;;;18.66;52.52;99463.16;5088837;28;20182;-60
2021/12/09 09:07:41;;;;;;;16.20;3.90;;;;;;;18.66;52.44;99463.16;5090557;28;20400;-60
2021/12/09 09:10:06;;;;;;;8.67;4.00;;;;;;;18.68;52.33;99480.75;5092472;28;20460;-61
2021/12/09 09:12:33;;;;;;;19.33;4.50;;;;;;;18.66;52.47;99473.81;5095103;28;20452;-61
2021/12/09 09:14:59;;;;;;;12.17;5.27;;;;;;;18.70;52.18;99477.47;5089288;28;20170;-60
2021/12/09 09:17:24;;;;;;;14.57;4.60;;;;;;;18.66;52.47;99479.53;5108446;28;20441;-60
2021/12/09 09:19:50;;;;;;;9.20;3.90;;;;;;;18.66;52.40;99479.53;5100820;27;20432;-60
2021/12/09 09:22:15;;;;;;;10.20;3.97;;;;;;;18.66;52.40;99477.47;5106430;28;20225;-60
2021/12/09 09:24:41;;;;;;;8.53;4.20;;;;;;;18.66;52.41;99480.31;5097395;28;20170;-60
2021/12/09 09:27:06;;;;;;;10.40;3.87;;;;;;;18.67;52.72;99487.69;5092189;28;20197;-63
2021/12/09 09:29:34;;;;;;;13.47;4.67;;;;;;;18.69;52.32;99487.28;5108285;28;20189;-62
2021/12/09 09:31:59;;;;;;;8.20;4.40;;;;;;;18.64;52.56;99487.66;5092350;28;20175;-63
2021/12/09 09:34:25;;;;;;;12.90;4.17;;;;;;;18.63;52.13;99486.88;5095509;28;20431;-63
2021/12/09 09:36:50;;;;;;;11.80;4.20;;;;;;;18.66;52.34;99497.47;5100869;27;20170;-63
2021/12/09 09:39:21;;;;;;;7.20;3.93;;;;;;;18.65;52.14;99495.84;5112675;28;20178;-63
2021/12/09 09:41:59;;;;;;;10.57;4.00;;;;;;;18.67;52.25;99492.59;5109968;28;20610;-63
2021/12/09 09:44:30;;;;;;;11.43;3.83;;;;;;;18.66;52.05;99493.81;5096794;28;20477;-62
2021/12/09 09:46:57;;;;;;;5.40;3.73;;;;;;;18.65;52.20;99498.72;5073911;28;20512;-63
2021/12/09 09:49:23;;;;;;;12.53;3.90;;;;;;;18.65;52.13;99493.00;5102474;27;20435;-63
2021/12/09 09:51:48;;;;;;;10.57;3.57;;;;;;;18.68;52.16;99500.78;5060076;28;20428;-63
2021/12/09 09:54:14;;;;;;;11.73;3.87;;;;;;;18.67;52.22;99501.16;5092774;28;20319;-63
2021/12/09 09:56:42;;;;;;;8.07;3.10;;;;;;;18.68;52.33;99506.50;5094162;28;20207;-63
2021/12/09 09:59:08;;;;;;;9.67;3.50;;;;;;;18.69;52.18;99513.00;5111473;28;20178;-63
2021/12/09 10:01:35;;;;;;;6.57;3.63;;;;;;;18.67;52.19;99521.97;5112912;28;20419;-63
2021/12/09 10:04:10;;;;;;;7.63;4.00;;;;;;;18.62;52.64;99508.06;5093632;28;20415;-63
2021/12/09 10:06:37;;;;;;;7.73;3.87;;;;;;;18.68;52.40;99515.06;5106828;28;20432;-63
2021/12/09 10:09:04;;;;;;;13.40;3.83;;;;;;;18.67;52.20;99504.81;5084133;28;20446;-62
2021/12/09 10:11:29;;;;;;;6.93;3.73;;;;;;;18.68;52.27;99512.22;5092834;28;20966;-62
2021/12/09 10:14:09;;;;;;;9.30;4.00;;;;;;;18.68;52.32;99506.50;5105560;27;20513;-62
2021/12/09 10:16:35;;;;;;;7.50;3.30;;;;;;;18.72;52.12;99507.31;5087307;28;20186;-63
2021/12/09 10:19:00;;;;;;;9.10;3.47;;;;;;;18.71;51.98;99499.94;5074954;28;20497;-63
2021/12/09 10:21:30;;;;;;;5.40;3.30;;;;;;;18.69;52.27;99495.84;5112679;28;20166;-62
2021/12/09 10:24:00;;;;;;;7.63;2.77;;;;;;;18.69;52.25;99496.69;5103159;28;20178;-62
2021/12/09 10:26:26;;;;;;;7.97;3.40;;;;;;;18.72;52.18;99484.44;5092868;28;20413;-63
2021/12/09 10:29:07;;;;;;;8.37;3.73;;;;;;;18.71;52.22;99491.38;5094596;28;20483;-63
2021/12/09 10:31:36;;;;;;;5.60;3.10;;;;;;;18.72;52.15;99495.06;5123662;27;20483;-62
2021/12/09 10:37:06;;;;;;;7.43;3.63;;;;;;;18.67;52.31;99492.59;5072344;27;20436;-63
2021/12/09 10:39:34;;;;;;;7.33;3.60;;;;;;;18.67;52.27;99479.09;5125917;27;20443;-63
2021/12/09 10:42:04;;;;;;;6.33;2.77;;;;;;;18.65;52.19;99478.69;5111060;28;20427;-62
2021/12/09 10:44:32;;;;;;;7.47;3.17;;;;;;;18.67;52.42;99487.69;5111869;28;20410;-62
2021/12/09 10:47:07;;;;;;;6.37;3.20;;;;;;;18.64;52.39;99479.91;5107352;28;20432;-62
2021/12/09 10:49:40;;;;;;;8.70;3.23;;;;;;;18.63;52.51;99486.03;5092219;28;20455;-63
2021/12/09 10:52:37;;;;;;;7.33;3.50;;;;;;;18.67;52.19;99481.16;5094233;28;20969;-62
2021/12/09 10:55:16;;;;;;;5.70;2.87;;;;;;;18.67;52.19;99481.97;5091172;28;20448;-63
2021/12/09 10:57:41;;;;;;;4.70;3.00;;;;;;;18.66;52.27;99479.53;5095551;28;20443;-63
2021/12/09 11:00:28;;;;;;;8.27;3.13;;;;;;;18.67;52.04;99464.81;5095391;28;20793;-62
2021/12/09 11:03:09;;;;;;;5.73;3.30;;;;;;;18.64;52.55;99470.50;5089950;28;20239;-63
2021/12/09 11:05:41;;;;;;;5.93;2.80;;;;;;;18.69;52.31;99470.97;5105297;28;20504;-63
2021/12/09 11:08:20;;;;;;;6.47;2.70;;;;;;;18.70;52.08;99468.91;5111073;28;20855;-62
2021/12/09 11:10:48;;;;;;;6.73;2.90;;;;;;;18.67;52.39;99467.66;5101619;28;20476;-63
2021/12/09 11:13:18;;;;;;;5.90;3.10;;;;;;;18.65;52.23;99466.44;5093296;28;20474;-62
2021/12/09 11:15:49;;;;;;;5.07;2.57;;;;;;;18.61;52.65;99463.56;5092954;28;20795;-62
2021/12/09 11:18:39;;;;;;;6.57;3.13;;;;;;;18.64;52.25;99465.63;5104390;28;20885;-62
2021/12/09 11:21:32;;;;;;;5.67;3.10;;;;;;;18.65;52.38;99461.53;5111009;28;20895;-62
2021/12/09 11:24:06;;;;;;;8.20;2.90;;;;;;;18.68;52.32;99457.06;5111553;28;20407;-62
2021/12/09 11:26:36;;;;;;;6.23;2.80;;;;;;;18.63;53.02;99452.56;5110685;28;20759;-63
2021/12/09 11:29:11;;;;;;;5.77;2.87;;;;;;;18.65;52.31;99455.81;5108436;28;20424;-62
2021/12/09 11:31:42;;;;;;;6.37;3.03;;;;;;;18.66;52.19;99451.72;5111251;28;20418;-63
2021/12/09 11:34:16;;;;;;;7.90;3.20;;;;;;;18.71;52.17;99448.47;5109514;28;20827;-62